Time,TemperatureF,DewpointF,PressureIn,WindDirection,WindDirectionDegrees,WindSpeedMPH,WindSpeedGustMPH,Humidity,HourlyPrecipIn,Conditions,Clouds,dailyrainin,SolarRadiationWatts/m^2,SoftwareType,DateUTC
2013-03-20 00:00:00,54.8,28.4,30.06,NNW,339,0.0,1.0,36,0.00,,CLR,0.02,0.00,VWS V14.00,2013-03-20 04:00:00,
2013-03-20 00:03:00,54.8,28.4,30.06,NNW,339,0.0,1.0,36,0.00,,CLR,0.02,0.00,VWS V14.00,2013-03-20 04:03:00,
2013-03-20 00:08:00,54.5,28.8,30.06,NNW,339,0.0,0.0,37,0.00,,CLR,0.00,0.00,VWS V14.00,2013-03-20 04:08:00,
2013-03-20 00:13:00,54.4,28.7,30.06,NNW,339,0.0,0.0,37,0.00,,CLR,0.00,0.00,VWS V14.00,2013-03-20 04:13:00,
2013-03-20 00:18:00,54.2,29.2,30.06,NNW,339,0.0,0.0,38,0.00,,CLR,0.00,0.00,VWS V14.00,2013-03-20 04:18:00,
2013-03-20 00:23:00,53.9,29.5,30.06,NNW,339,0.0,0.0,39,0.00,,CLR,0.00,0.00,VWS V14.00,2013-03-20 04:23:00,
2013-03-20 00:28:00,53.8,30.7,30.06,NNW,339,0.0,0.0,41,0.00,,CLR,0.00,0.00,VWS V14.00,2013-03-20 04:28:00,
2013-03-20 00:33:00,53.6,30.5,30.06,NNW,339,0.0,0.0,41,0.00,,CLR,0.00,0.00,VWS V14.00,2013-03-20 04:33:00,
2013-03-20 00:38:00,53.5,31.0,30.06,NNW,339,0.0,0.0,42,0.00,,CLR,0.00,0.00,VWS V14.00,2013-03-20 04:38:00,
2013-03-20 00:43:00,53.2,29.5,30.06,NNW,339,0.0,0.0,40,0.00,,CLR,0.00,0.00,VWS V14.00,2013-03-20 04:43:00,
2013-03-20 00:48:00,53.1,30.0,30.06,NNW,339,0.0,0.0,41,0.00,,CLR,0.00,0.00,VWS V14.00,2013-03-20 04:48:00,
2013-03-20 00:53:00,52.9,30.5,30.06,NNW,339,0.0,0.0,42,0.00,,CLR,0.00,0.00,VWS V14.00,2013-03-20 04:53:00,
2013-03-20 00:58:00,52.8,30.9,30.06,NNW,339,0.0,0.0,43,0.00,,CLR,0.00,0.00,VWS V14.00,2013-03-20 04:58:00,
2013-03-20 01:03:00,52.6,30.2,30.07,NNW,339,0.0,0.0,42,0.00,,CLR,0.00,0.00,VWS V14.00,2013-03-20 05:03:00,
2013-03-20 01:08:00,52.5,31.2,30.07,NNW,339,0.0,0.0,44,0.00,,CLR,0.00,0.00,VWS V14.00,2013-03-20 05:08:00,
2013-03-20 01:13:00,52.2,29.8,30.07,NNW,339,0.0,0.0,42,0.00,,CLR,0.00,0.00,VWS V14.00,2013-03-20 05:13:00,
2013-03-20 01:18:00,52.2,31.0,30.06,NNW,339,0.0,0.0,44,0.00,,CLR,0.00,0.00,VWS V14.00,2013-03-20 05:18:00,
2013-03-20 01:23:00,52.0,30.8,30.06,NNW,339,0.0,0.0,44,0.00,,CLR,0.00,0.00,VWS V14.00,2013-03-20 05:23:00,
2013-03-20 01:28:00,51.9,31.2,30.06,NNW,339,0.0,0.0,45,0.00,,CLR,0.00,0.00,VWS V14.00,2013-03-20 05:28:00,
2013-03-20 01:33:00,51.7,29.9,30.06,NNW,339,0.0,0.0,43,0.00,,CLR,0.00,0.00,VWS V14.00,2013-03-20 05:33:00,
2013-03-20 01:38:00,51.7,29.9,30.06,NNW,339,0.0,0.0,43,0.00,,CLR,0.00,0.00,VWS V14.00,2013-03-20 05:38:00,
2013-03-20 01:43:00,51.6,29.9,30.06,NNW,339,0.0,0.0,43,0.00,,CLR,0.00,0.00,VWS V14.00,2013-03-20 05:43:00,
2013-03-20 01:48:00,51.6,29.9,30.06,NNW,339,0.0,0.0,43,0.00,,CLR,0.00,0.00,VWS V14.00,2013-03-20 05:48:00,
2013-03-20 01:53:00,51.6,29.3,30.06,NNW,340,0.0,1.0,42,0.00,,CLR,0.00,0.00,VWS V14.00,2013-03-20 05:53:00,
2013-03-20 01:58:00,51.6,30.4,30.06,NNW,340,0.0,1.0,44,0.00,,CLR,0.00,0.00,VWS V14.00,2013-03-20 05:58:00,
2013-03-20 02:03:00,51.6,29.9,30.05,NNW,340,0.0,0.0,43,0.00,,CLR,0.00,0.00,VWS V14.00,2013-03-20 06:03:00,
2013-03-20 02:08:00,51.6,29.9,30.05,NNW,340,0.0,0.0,43,0.00,,CLR,0.00,0.00,VWS V14.00,2013-03-20 06:08:00,
2013-03-20 02:13:00,51.4,30.2,30.05,NNW,340,0.0,0.0,44,0.00,,CLR,0.00,0.00,VWS V14.00,2013-03-20 06:13:00,
2013-03-20 02:18:00,51.4,30.2,30.06,NNW,340,0.0,0.0,44,0.00,,CLR,0.00,0.00,VWS V14.00,2013-03-20 06:18:00,
2013-03-20 02:23:00,51.3,30.1,30.06,NNW,340,0.0,0.0,44,0.00,,CLR,0.00,0.00,VWS V14.00,2013-03-20 06:23:00,
2013-03-20 02:28:00,51.1,30.5,30.06,NNW,340,0.0,0.0,45,0.00,,CLR,0.00,0.00,VWS V14.00,2013-03-20 06:28:00,
2013-03-20 02:33:00,51.0,31.0,30.06,NNW,340,0.0,0.0,46,0.00,,CLR,0.00,0.00,VWS V14.00,2013-03-20 06:33:00,
2013-03-20 02:38:00,50.7,30.1,30.06,NNW,340,0.0,0.0,45,0.00,,CLR,0.00,0.00,VWS V14.00,2013-03-20 06:38:00,
2013-03-20 02:43:00,50.5,29.4,30.06,NNW,340,0.0,0.0,44,0.00,,CLR,0.00,0.00,VWS V14.00,2013-03-20 06:43:00,
2013-03-20 02:48:00,50.4,27.0,30.06,NNW,340,0.0,1.0,40,0.00,,CLR,0.00,0.00,VWS V14.00,2013-03-20 06:48:00,
2013-03-20 02:53:00,50.4,27.0,30.06,North,7,0.0,1.0,40,0.00,,CLR,0.00,0.00,VWS V14.00,2013-03-20 06:53:00,
2013-03-20 02:58:00,50.2,26.8,30.06,North,7,0.0,1.0,40,0.00,,CLR,0.00,0.00,VWS V14.00,2013-03-20 06:58:00,
2013-03-20 03:03:00,50.2,25.6,30.06,NE,40,1.0,3.0,38,0.00,,CLR,0.00,0.00,VWS V14.00,2013-03-20 07:03:00,
2013-03-20 03:08:00,50.1,24.9,30.06,NE,40,0.0,3.0,37,0.00,,CLR,0.00,0.00,VWS V14.00,2013-03-20 07:08:00,
2013-03-20 03:13:00,50.1,24.9,30.06,NE,40,0.0,1.0,37,0.00,,CLR,0.00,0.00,VWS V14.00,2013-03-20 07:13:00,
2013-03-20 03:18:00,50.1,24.9,30.06,NE,40,0.0,2.0,37,0.00,,CLR,0.00,0.00,VWS V14.00,2013-03-20 07:18:00,
2013-03-20 03:23:00,49.9,24.0,30.06,NE,40,0.0,1.0,36,0.00,,CLR,0.00,0.00,VWS V14.00,2013-03-20 07:23:00,
2013-03-20 03:28:00,49.8,23.9,30.06,NE,40,0.0,1.0,36,0.00,,CLR,0.00,0.00,VWS V14.00,2013-03-20 07:28:00,
2013-03-20 03:33:00,49.6,25.7,30.06,NE,40,0.0,0.0,39,0.00,,CLR,0.00,0.00,VWS V14.00,2013-03-20 07:33:00,
2013-03-20 03:38:00,49.4,24.9,30.06,NE,40,0.0,0.0,38,0.00,,CLR,0.00,0.00,VWS V14.00,2013-03-20 07:38:00,
2013-03-20 03:43:00,49.2,23.4,30.06,NE,40,0.0,1.0,36,0.00,,CLR,0.00,0.00,VWS V14.00,2013-03-20 07:43:00,
2013-03-20 03:48:00,49.1,24.0,30.06,NE,40,0.0,1.0,37,0.00,,CLR,0.00,0.00,VWS V14.00,2013-03-20 07:48:00,
2013-03-20 03:53:00,48.9,24.4,30.06,NE,40,0.0,0.0,38,0.00,,CLR,0.00,0.00,VWS V14.00,2013-03-20 07:53:00,
2013-03-20 03:58:00,48.6,24.8,30.06,NE,40,0.0,0.0,39,0.00,,CLR,0.00,0.00,VWS V14.00,2013-03-20 07:58:00,
2013-03-20 04:03:00,48.3,23.3,30.05,NE,40,0.0,0.0,37,0.00,,CLR,0.00,0.00,VWS V14.00,2013-03-20 08:03:00,
2013-03-20 04:08:00,48.2,23.2,30.05,NE,40,0.0,1.0,37,0.00,,CLR,0.00,0.00,VWS V14.00,2013-03-20 08:08:00,
2013-03-20 04:13:00,48.0,23.6,30.05,NE,40,0.0,0.0,38,0.00,,CLR,0.00,0.00,VWS V14.00,2013-03-20 08:13:00,
2013-03-20 04:18:00,47.9,22.9,30.05,NE,40,0.0,1.0,37,0.00,,CLR,0.00,0.00,VWS V14.00,2013-03-20 08:18:00,
2013-03-20 04:23:00,47.7,24.0,30.05,NE,40,0.0,0.0,39,0.00,,CLR,0.00,0.00,VWS V14.00,2013-03-20 08:23:00,
2013-03-20 04:28:00,47.6,24.5,30.05,NE,40,0.0,0.0,40,0.00,,CLR,0.00,0.00,VWS V14.00,2013-03-20 08:28:00,
2013-03-20 04:33:00,47.3,22.4,30.05,NE,40,0.0,0.0,37,0.00,,CLR,0.00,0.00,VWS V14.00,2013-03-20 08:33:00,
2013-03-20 04:38:00,47.1,23.4,30.05,NE,40,0.0,0.0,39,0.00,,CLR,0.00,0.00,VWS V14.00,2013-03-20 08:38:00,
2013-03-20 04:43:00,47.0,23.3,30.05,NE,40,0.0,0.0,39,0.00,,CLR,0.00,0.00,VWS V14.00,2013-03-20 08:43:00,
2013-03-20 04:48:00,46.8,23.8,30.05,NE,40,0.0,0.0,40,0.00,,CLR,0.00,0.00,VWS V14.00,2013-03-20 08:48:00,
2013-03-20 04:53:00,46.7,24.3,30.05,NE,40,0.0,1.0,41,0.00,,CLR,0.00,0.00,VWS V14.00,2013-03-20 08:53:00,
2013-03-20 04:58:00,46.4,23.4,30.05,NE,40,0.0,1.0,40,0.00,,CLR,0.00,0.00,VWS V14.00,2013-03-20 08:58:00,
2013-03-20 05:03:00,46.2,23.2,30.05,NE,40,0.0,0.0,40,0.00,,CLR,0.00,0.00,VWS V14.00,2013-03-20 09:03:00,
2013-03-20 05:08:00,46.1,24.3,30.05,NE,40,0.0,1.0,42,0.00,,CLR,0.00,0.00,VWS V14.00,2013-03-20 09:08:00,
2013-03-20 05:13:00,45.8,24.0,30.05,NE,40,0.0,0.0,42,0.00,,CLR,0.00,0.00,VWS V14.00,2013-03-20 09:13:00,
2013-03-20 05:18:00,45.7,24.5,30.06,NE,40,0.0,1.0,43,0.00,,CLR,0.00,0.00,VWS V14.00,2013-03-20 09:18:00,
2013-03-20 05:23:00,45.5,23.8,30.06,NE,40,0.0,1.0,42,0.00,,CLR,0.00,0.00,VWS V14.00,2013-03-20 09:23:00,
2013-03-20 05:28:00,45.4,24.2,30.06,NE,40,0.0,1.0,43,0.00,,CLR,0.00,0.00,VWS V14.00,2013-03-20 09:28:00,
2013-03-20 05:33:00,45.2,24.0,30.06,NE,40,0.0,0.0,43,0.00,,CLR,0.00,0.00,VWS V14.00,2013-03-20 09:33:00,
2013-03-20 05:38:00,45.1,24.0,30.06,NE,40,0.0,0.0,43,0.00,,CLR,0.00,0.00,VWS V14.00,2013-03-20 09:38:00,
2013-03-20 05:43:00,45.1,25.0,30.06,NE,40,0.0,0.0,45,0.00,,CLR,0.00,0.00,VWS V14.00,2013-03-20 09:43:00,
2013-03-20 05:48:00,44.9,25.4,30.06,NE,40,0.0,0.0,46,0.00,,CLR,0.00,0.00,VWS V14.00,2013-03-20 09:48:00,
2013-03-20 05:53:00,44.6,25.1,30.06,NE,40,0.0,0.0,46,0.00,,CLR,0.00,0.00,VWS V14.00,2013-03-20 09:53:00,
2013-03-20 05:58:00,44.5,26.0,30.06,NE,40,0.0,0.0,48,0.00,,CLR,0.00,0.00,VWS V14.00,2013-03-20 09:58:00,
2013-03-20 06:03:00,44.3,25.9,30.07,NE,40,0.0,0.0,48,0.00,,CLR,0.00,0.00,VWS V14.00,2013-03-20 10:03:00,
2013-03-20 06:08:00,44.2,26.8,30.07,NE,40,0.0,0.0,50,0.00,,CLR,0.00,0.00,VWS V14.00,2013-03-20 10:08:00,
2013-03-20 06:13:00,44.2,26.8,30.07,NE,40,0.0,0.0,50,0.00,,CLR,0.00,0.00,VWS V14.00,2013-03-20 10:13:00,
2013-03-20 06:18:00,44.1,27.1,30.08,NE,40,0.0,0.0,51,0.00,,CLR,0.00,0.00,VWS V14.00,2013-03-20 10:18:00,
2013-03-20 06:23:00,43.9,27.0,30.08,NE,40,0.0,0.0,51,0.00,,CLR,0.00,0.00,VWS V14.00,2013-03-20 10:23:00,
2013-03-20 06:28:00,43.9,27.4,30.08,NE,40,0.0,0.0,52,0.00,,CLR,0.00,0.00,VWS V14.00,2013-03-20 10:28:00,
2013-03-20 06:33:00,43.8,27.3,30.10,NE,40,0.0,0.0,52,0.00,,CLR,0.00,0.00,VWS V14.00,2013-03-20 10:33:00,
2013-03-20 06:38:00,43.8,27.8,30.10,NE,40,0.0,0.0,53,0.00,,CLR,0.00,0.00,VWS V14.00,2013-03-20 10:38:00,
2013-03-20 06:43:00,43.6,27.6,30.10,NE,40,0.0,0.0,53,0.00,,CLR,0.00,0.00,VWS V14.00,2013-03-20 10:43:00,
2013-03-20 06:48:00,43.6,25.7,30.10,NE,40,0.0,0.0,49,0.00,,CLR,0.00,0.00,VWS V14.00,2013-03-20 10:48:00,
2013-03-20 06:53:00,43.6,25.7,30.10,NE,40,0.0,0.0,49,0.00,,CLR,0.00,0.00,VWS V14.00,2013-03-20 10:53:00,
2013-03-20 06:58:00,43.8,24.9,30.10,NE,40,0.0,0.0,47,0.00,,CLR,0.00,0.00,VWS V14.00,2013-03-20 10:58:00,
2013-03-20 07:03:00,43.9,26.0,30.10,NE,40,0.0,0.0,49,0.00,,CLR,0.00,0.00,VWS V14.00,2013-03-20 11:03:00,
2013-03-20 07:08:00,43.9,26.5,30.10,NE,40,0.0,0.0,50,0.00,,CLR,0.00,0.00,VWS V14.00,2013-03-20 11:08:00,
2013-03-20 07:13:00,44.1,24.1,30.10,NE,40,0.0,0.0,45,0.00,,CLR,0.00,0.00,VWS V14.00,2013-03-20 11:13:00,
2013-03-20 07:18:00,44.2,24.2,30.11,NE,40,0.0,0.0,45,0.00,,CLR,0.00,0.00,VWS V14.00,2013-03-20 11:18:00,
2013-03-20 07:23:00,44.2,24.8,30.11,NE,40,0.0,0.0,46,0.00,,CLR,0.00,0.00,VWS V14.00,2013-03-20 11:23:00,
2013-03-20 07:29:00,44.2,24.2,30.11,NE,40,0.0,0.0,45,0.00,,CLR,0.00,0.00,VWS V14.00,2013-03-20 11:29:00,
2013-03-20 07:33:00,44.2,24.8,30.12,NE,40,0.0,0.0,46,0.00,,CLR,0.00,0.00,VWS V14.00,2013-03-20 11:33:00,
2013-03-20 07:39:00,44.2,24.2,30.12,NE,40,0.0,0.0,45,0.00,,CLR,0.00,0.00,VWS V14.00,2013-03-20 11:39:00,
2013-03-20 07:44:00,44.2,25.3,30.12,NE,40,0.0,0.0,47,0.00,,CLR,0.00,7.00,VWS V14.00,2013-03-20 11:44:00,
2013-03-20 07:49:00,44.2,24.8,30.12,NE,40,0.0,0.0,46,0.00,,CLR,0.00,11.00,VWS V14.00,2013-03-20 11:49:00,
2013-03-20 07:54:00,44.2,24.8,30.12,NE,40,0.0,0.0,46,0.00,,CLR,0.00,21.00,VWS V14.00,2013-03-20 11:54:00,
2013-03-20 07:59:00,44.3,24.8,30.12,NE,40,0.0,0.0,46,0.00,,CLR,0.00,35.00,VWS V14.00,2013-03-20 11:59:00,
2013-03-20 08:04:00,44.3,25.4,30.13,NE,40,0.0,0.0,47,0.00,,CLR,0.00,33.00,VWS V14.00,2013-03-20 12:04:00,
2013-03-20 08:09:00,44.3,26.4,30.13,NE,40,0.0,0.0,49,0.00,,CLR,0.00,30.00,VWS V14.00,2013-03-20 12:09:00,
2013-03-20 08:14:00,44.5,23.4,30.13,NE,40,0.0,0.0,43,0.00,,CLR,0.00,39.00,VWS V14.00,2013-03-20 12:14:00,
2013-03-20 08:19:00,44.6,23.5,30.15,NE,40,0.0,0.0,43,0.00,,CLR,0.00,48.00,VWS V14.00,2013-03-20 12:19:00,
2013-03-20 08:24:00,44.8,23.7,30.15,NE,40,0.0,0.0,43,0.00,,CLR,0.00,62.00,VWS V14.00,2013-03-20 12:24:00,
2013-03-20 08:29:00,44.9,23.8,30.15,NE,40,0.0,0.0,43,0.00,,CLR,0.00,67.00,VWS V14.00,2013-03-20 12:29:00,
2013-03-20 08:34:00,45.1,24.0,30.15,NE,40,0.0,0.0,43,0.00,,CLR,0.00,67.00,VWS V14.00,2013-03-20 12:34:00,
2013-03-20 08:39:00,45.2,24.0,30.15,NE,40,0.0,0.0,43,0.00,,CLR,0.00,86.00,VWS V14.00,2013-03-20 12:39:00,
2013-03-20 08:44:00,45.4,23.7,30.15,NE,40,0.0,0.0,42,0.00,,CLR,0.00,91.00,VWS V14.00,2013-03-20 12:44:00,
2013-03-20 08:49:00,45.7,23.9,30.15,ESE,114,1.0,1.0,42,0.00,,CLR,0.00,93.00,VWS V14.00,2013-03-20 12:49:00,
2013-03-20 08:54:00,45.8,24.0,30.15,ESE,114,0.0,1.0,42,0.00,,CLR,0.00,81.00,VWS V14.00,2013-03-20 12:54:00,
2013-03-20 08:59:00,46.0,23.0,30.15,ESE,114,0.0,1.0,40,0.00,,CLR,0.00,111.00,VWS V14.00,2013-03-20 12:59:00,
2013-03-20 09:04:00,46.2,23.2,30.16,ESE,114,0.0,0.0,40,0.00,,OVC110,0.00,127.00,VWS V14.00,2013-03-20 13:04:00,
2013-03-20 09:09:00,46.4,24.6,30.16,ESE,113,0.0,0.0,42,0.00,,OVC110,0.00,137.00,VWS V14.00,2013-03-20 13:09:00,
2013-03-20 09:14:00,46.7,23.1,30.16,ENE,71,0.0,1.0,39,0.00,,OVC110,0.00,194.00,VWS V14.00,2013-03-20 13:14:00,
2013-03-20 09:19:00,46.8,23.8,30.16,ENE,71,0.0,1.0,40,0.00,,OVC110,0.00,209.00,VWS V14.00,2013-03-20 13:19:00,
2013-03-20 09:24:00,47.3,23.6,30.16,ENE,68,0.0,1.0,39,0.00,,OVC110,0.00,225.00,VWS V14.00,2013-03-20 13:24:00,
2013-03-20 09:29:00,47.6,23.3,30.16,ENE,66,0.0,2.0,38,0.00,,OVC110,0.00,204.00,VWS V14.00,2013-03-20 13:29:00,
2013-03-20 09:34:00,47.9,22.2,30.16,ENE,66,0.0,2.0,36,0.00,,OVC110,0.00,229.00,VWS V14.00,2013-03-20 13:34:00,
2013-03-20 09:39:00,48.2,22.5,30.16,ENE,62,0.0,2.0,36,0.00,,OVC110,0.00,241.00,VWS V14.00,2013-03-20 13:39:00,
2013-03-20 09:44:00,48.6,20.8,30.16,ENE,61,1.0,1.0,33,0.00,,OVC110,0.00,266.00,VWS V14.00,2013-03-20 13:44:00,
2013-03-20 09:49:00,49.1,20.5,30.17,NNE,32,0.0,6.0,32,0.00,,OVC110,0.00,241.00,VWS V14.00,2013-03-20 13:49:00,
2013-03-20 09:54:00,49.5,20.1,30.17,NE,34,2.0,2.0,31,0.00,,OVC110,0.00,216.00,VWS V14.00,2013-03-20 13:54:00,
2013-03-20 09:59:00,49.8,19.6,30.17,ENE,73,0.0,4.0,30,0.00,,OVC110,0.00,197.00,VWS V14.00,2013-03-20 13:59:00,
2013-03-20 10:04:00,49.9,19.7,30.16,ENE,69,0.0,4.0,30,0.00,,OVC110,0.00,199.00,VWS V14.00,2013-03-20 14:04:00,
2013-03-20 10:09:00,50.2,19.2,30.16,ENE,69,1.0,4.0,29,0.00,,OVC110,0.00,206.00,VWS V14.00,2013-03-20 14:09:00,
2013-03-20 10:14:00,50.4,20.9,30.16,ESE,107,0.0,2.0,31,0.00,,OVC110,0.00,215.00,VWS V14.00,2013-03-20 14:14:00,
2013-03-20 10:19:00,50.5,18.6,30.16,East,83,1.0,2.0,28,0.00,,OVC110,0.00,201.00,VWS V14.00,2013-03-20 14:19:00,
2013-03-20 10:24:00,50.8,21.3,30.16,North,0,0.0,2.0,31,0.00,,OVC110,0.00,283.00,VWS V14.00,2013-03-20 14:24:00,
2013-03-20 10:29:00,51.1,19.1,30.16,ENE,66,0.0,6.0,28,0.00,,OVC110,0.00,283.00,VWS V14.00,2013-03-20 14:29:00,
2013-03-20 10:34:00,51.7,19.7,30.16,ENE,66,1.0,2.0,28,0.00,,OVC110,0.00,648.00,VWS V14.00,2013-03-20 14:34:00,
2013-03-20 10:39:00,52.0,19.9,30.16,ENE,72,1.0,3.0,28,0.00,,OVC110,0.00,283.00,VWS V14.00,2013-03-20 14:39:00,
2013-03-20 10:44:00,52.0,17.3,30.16,ESE,103,0.0,2.0,25,0.00,,OVC110,0.00,266.00,VWS V14.00,2013-03-20 14:44:00,
2013-03-20 10:49:00,52.0,19.1,30.16,NNE,31,0.0,3.0,27,0.00,,OVC110,0.00,280.00,VWS V14.00,2013-03-20 14:49:00,
2013-03-20 10:54:00,52.0,19.1,30.16,NNE,32,1.0,3.0,27,0.00,,OVC110,0.00,287.00,VWS V14.00,2013-03-20 14:54:00,
2013-03-20 10:59:00,52.0,19.1,30.16,ESE,123,2.0,3.0,27,0.00,,OVC110,0.00,382.00,VWS V14.00,2013-03-20 14:59:00,
2013-03-20 11:04:00,52.3,19.3,30.15,NNE,32,0.0,3.0,27,0.00,,,0.00,581.00,VWS V14.00,2013-03-20 15:04:00,
2013-03-20 11:09:00,52.8,19.8,30.15,NE,42,0.0,5.0,27,0.00,,,0.00,283.00,VWS V14.00,2013-03-20 15:09:00,
2013-03-20 11:14:00,52.9,19.9,30.15,East,90,0.0,1.0,27,0.00,,,0.00,179.00,VWS V14.00,2013-03-20 15:14:00,
2013-03-20 11:19:00,52.9,19.0,30.14,ENE,73,0.0,2.0,26,0.00,,,0.00,213.00,VWS V14.00,2013-03-20 15:19:00,
2013-03-20 11:24:00,52.9,19.9,30.14,ENE,64,0.0,2.0,27,0.00,,,0.00,222.00,VWS V14.00,2013-03-20 15:24:00,
2013-03-20 11:29:00,53.1,20.9,30.14,ENE,62,0.0,2.0,28,0.00,,,0.00,241.00,VWS V14.00,2013-03-20 15:29:00,
2013-03-20 11:34:00,53.1,18.2,30.14,ENE,62,0.0,2.0,25,0.00,,,0.00,238.00,VWS V14.00,2013-03-20 15:34:00,
2013-03-20 11:39:00,53.2,19.2,30.14,SSW,206,1.0,2.0,26,0.00,,,0.00,313.00,VWS V14.00,2013-03-20 15:39:00,
2013-03-20 11:44:00,53.6,20.5,30.14,SSW,202,0.0,2.0,27,0.00,,,0.00,596.00,VWS V14.00,2013-03-20 15:44:00,
2013-03-20 11:49:00,54.1,18.1,30.14,SW,215,0.0,3.0,24,0.00,,,0.00,614.00,VWS V14.00,2013-03-20 15:49:00,
2013-03-20 11:54:00,54.5,16.5,30.14,SE,143,1.0,1.0,22,0.00,,,0.00,663.00,VWS V14.00,2013-03-20 15:54:00,
2013-03-20 11:59:00,55.1,18.0,30.14,NE,37,1.0,5.0,23,0.00,,,0.00,392.00,VWS V14.00,2013-03-20 15:59:00,
2013-03-20 12:04:00,55.6,18.4,30.13,NNE,30,2.0,5.0,23,0.00,,OVC110,0.00,656.00,VWS V14.00,2013-03-20 16:04:00,
2013-03-20 12:09:00,55.7,17.5,30.13,South,182,4.0,6.0,22,0.00,,OVC110,0.00,700.00,VWS V14.00,2013-03-20 16:09:00,
2013-03-20 12:14:00,56.2,17.9,30.13,East,100,0.0,5.0,22,0.00,,OVC110,0.00,524.00,VWS V14.00,2013-03-20 16:14:00,
2013-03-20 12:19:00,56.7,19.3,30.11,SW,226,0.0,5.0,23,0.00,,OVC110,0.00,440.00,VWS V14.00,2013-03-20 16:19:00,
2013-03-20 12:24:00,57.0,16.4,30.11,South,191,1.0,6.0,20,0.00,,OVC110,0.00,449.00,VWS V14.00,2013-03-20 16:24:00,
2013-03-20 12:29:00,57.3,16.6,30.11,SSE,158,1.0,6.0,20,0.00,,OVC110,0.00,394.00,VWS V14.00,2013-03-20 16:29:00,
2013-03-20 12:34:00,57.5,19.0,30.11,SW,223,0.0,3.0,22,0.00,,OVC110,0.00,662.00,VWS V14.00,2013-03-20 16:34:00,
2013-03-20 12:39:00,57.6,18.0,30.11,SSE,155,4.0,4.0,21,0.00,,OVC110,0.00,616.00,VWS V14.00,2013-03-20 16:39:00,
2013-03-20 12:44:00,57.8,18.1,30.11,ESE,119,0.0,3.0,21,0.00,,OVC110,0.00,672.00,VWS V14.00,2013-03-20 16:44:00,
2013-03-20 12:49:00,58.0,18.3,30.10,East,80,0.0,3.0,21,0.00,,OVC110,0.00,598.00,VWS V14.00,2013-03-20 16:49:00,
2013-03-20 12:54:00,58.0,18.3,30.10,East,79,0.0,2.0,21,0.00,,OVC110,0.00,727.00,VWS V14.00,2013-03-20 16:54:00,
2013-03-20 12:59:00,58.3,17.4,30.10,ESE,116,1.0,3.0,20,0.00,,OVC110,0.00,442.00,VWS V14.00,2013-03-20 16:59:00,
2013-03-20 13:04:00,58.3,19.6,30.10,East,100,0.0,1.0,22,0.00,,SCT110,0.00,466.00,VWS V14.00,2013-03-20 17:04:00,
2013-03-20 13:09:00,58.7,20.0,30.10,East,99,1.0,1.0,22,0.00,,SCT110,0.00,491.00,VWS V14.00,2013-03-20 17:09:00,
2013-03-20 13:14:00,58.9,17.9,30.10,SSE,162,1.0,2.0,20,0.00,,SCT110,0.00,456.00,VWS V14.00,2013-03-20 17:14:00,
2013-03-20 13:19:00,59.0,19.1,30.08,NE,52,0.0,3.0,21,0.00,,SCT110,0.00,362.00,VWS V14.00,2013-03-20 17:19:00,
2013-03-20 13:24:00,58.9,17.9,30.08,ENE,75,2.0,2.0,20,0.00,,SCT110,0.00,466.00,VWS V14.00,2013-03-20 17:24:00,
2013-03-20 13:29:00,58.7,18.9,30.08,WSW,258,1.0,2.0,21,0.00,,SCT110,0.00,426.00,VWS V14.00,2013-03-20 17:29:00,
2013-03-20 13:34:00,58.9,17.9,30.07,West,272,0.0,1.0,20,0.00,,SCT110,0.00,415.00,VWS V14.00,2013-03-20 17:34:00,
2013-03-20 13:39:00,59.0,16.8,30.07,West,272,0.0,2.0,19,0.00,,SCT110,0.00,538.00,VWS V14.00,2013-03-20 17:39:00,
2013-03-20 13:44:00,59.3,17.1,30.07,WSW,258,0.0,2.0,19,0.00,,SCT110,0.00,556.00,VWS V14.00,2013-03-20 17:44:00,
2013-03-20 13:49:00,59.9,18.8,30.06,WSW,243,1.0,3.0,20,0.00,,SCT110,0.00,385.00,VWS V14.00,2013-03-20 17:49:00,
2013-03-20 13:54:00,60.1,17.7,30.06,ESE,103,0.0,2.0,19,0.00,,SCT110,0.00,394.00,VWS V14.00,2013-03-20 17:54:00,
2013-03-20 13:59:00,60.2,17.8,30.06,SSW,200,0.0,3.0,19,0.00,,SCT110,0.00,545.00,VWS V14.00,2013-03-20 17:59:00,
2013-03-20 14:04:00,60.5,16.8,30.06,SW,220,1.0,5.0,18,0.00,,SCT090,0.00,533.00,VWS V14.00,2013-03-20 18:04:00,
2013-03-20 14:09:00,60.5,16.8,30.06,SW,229,0.0,5.0,18,0.00,,SCT090,0.00,472.00,VWS V14.00,2013-03-20 18:09:00,
2013-03-20 14:14:00,60.7,17.0,30.06,SW,216,2.0,2.0,18,0.00,,SCT090,0.00,456.00,VWS V14.00,2013-03-20 18:14:00,
2013-03-20 14:19:00,60.9,19.6,30.05,SW,217,0.0,3.0,20,0.00,,SCT090,0.00,591.00,VWS V14.00,2013-03-20 18:19:00,
2013-03-20 14:24:00,61.2,17.4,30.05,ENE,72,0.0,2.0,18,0.00,,SCT090,0.00,882.00,VWS V14.00,2013-03-20 18:24:00,
2013-03-20 14:29:00,61.6,19.0,30.05,SSW,210,0.0,2.0,19,0.00,,SCT090,0.00,695.00,VWS V14.00,2013-03-20 18:29:00,
2013-03-20 14:34:00,61.8,17.9,30.02,WSW,246,2.0,6.0,18,0.00,,SCT090,0.00,612.00,VWS V14.00,2013-03-20 18:34:00,
2013-03-20 14:39:00,61.8,16.5,30.02,SW,232,2.0,6.0,17,0.00,,SCT090,0.00,519.00,VWS V14.00,2013-03-20 18:39:00,
2013-03-20 14:44:00,61.8,19.1,30.02,WSW,253,2.0,3.0,19,0.00,,SCT090,0.00,507.00,VWS V14.00,2013-03-20 18:44:00,
2013-03-20 14:49:00,61.5,17.6,30.02,SW,236,0.0,3.0,18,0.00,,SCT090,0.00,510.00,VWS V14.00,2013-03-20 18:49:00,
2013-03-20 14:54:00,61.5,20.1,30.02,SW,234,0.0,1.0,20,0.00,,SCT090,0.00,509.00,VWS V14.00,2013-03-20 18:54:00,
2013-03-20 14:59:00,61.6,20.2,30.02,West,260,0.0,4.0,20,0.00,,SCT090,0.00,649.00,VWS V14.00,2013-03-20 18:59:00,
2013-03-20 15:04:00,62.1,19.4,30.00,SSW,208,6.0,7.0,19,0.00,,CLR,0.00,600.00,VWS V14.00,2013-03-20 19:04:00,
2013-03-20 15:09:00,61.8,17.9,30.00,ESE,110,0.0,7.0,18,0.00,,CLR,0.00,552.00,VWS V14.00,2013-03-20 19:09:00,
2013-03-20 15:14:00,62.0,22.8,30.00,SW,215,1.0,2.0,22,0.00,,CLR,0.00,530.00,VWS V14.00,2013-03-20 19:14:00,
2013-03-20 15:19:00,62.1,19.4,29.99,SW,215,2.0,6.0,19,0.00,,CLR,0.00,509.00,VWS V14.00,2013-03-20 19:19:00,
2013-03-20 15:24:00,61.8,19.1,29.99,WSW,251,7.0,8.0,19,0.00,,CLR,0.00,549.00,VWS V14.00,2013-03-20 19:24:00,
2013-03-20 15:29:00,61.5,18.9,29.99,SW,215,0.0,8.0,19,0.00,,CLR,0.00,516.00,VWS V14.00,2013-03-20 19:29:00,
2013-03-20 15:34:00,61.5,20.1,29.98,SSW,213,2.0,7.0,20,0.00,,CLR,0.00,491.00,VWS V14.00,2013-03-20 19:34:00,
2013-03-20 15:39:00,61.8,21.5,29.98,SW,217,1.0,7.0,21,0.00,,CLR,0.00,417.00,VWS V14.00,2013-03-20 19:39:00,
2013-03-20 15:44:00,62.0,19.3,29.97,SW,236,2.0,5.0,19,0.00,,CLR,0.00,364.00,VWS V14.00,2013-03-20 19:44:00,
2013-03-20 15:49:00,61.8,21.5,29.97,WSW,240,1.0,5.0,21,0.00,,CLR,0.00,345.00,VWS V14.00,2013-03-20 19:49:00,
2013-03-20 15:54:00,61.8,21.5,29.97,WSW,239,1.0,3.0,21,0.00,,CLR,0.00,422.00,VWS V14.00,2013-03-20 19:54:00,
2013-03-20 15:59:00,61.6,20.2,29.97,WSW,250,1.0,6.0,20,0.00,,CLR,0.00,406.00,VWS V14.00,2013-03-20 19:59:00,
2013-03-20 16:04:00,61.5,20.1,29.96,WSW,248,2.0,5.0,20,0.00,,CLR,0.00,447.00,VWS V14.00,2013-03-20 20:04:00,
2013-03-20 16:09:00,61.5,21.2,29.96,WSW,256,8.0,10.0,21,0.00,,CLR,0.00,505.00,VWS V14.00,2013-03-20 20:09:00,
2013-03-20 16:14:00,61.5,20.1,29.96,SSW,208,3.0,10.0,20,0.00,,CLR,0.00,512.00,VWS V14.00,2013-03-20 20:14:00,
2013-03-20 16:19:00,61.5,20.1,29.95,WSW,243,2.0,10.0,20,0.00,,CLR,0.00,479.00,VWS V14.00,2013-03-20 20:19:00,
2013-03-20 16:24:00,61.3,19.9,29.95,WSW,239,0.0,10.0,20,0.00,,CLR,0.00,450.00,VWS V14.00,2013-03-20 20:24:00,
2013-03-20 16:29:00,61.3,21.1,29.94,SW,227,0.0,10.0,21,0.00,,CLR,0.00,392.00,VWS V14.00,2013-03-20 20:29:00,
2013-03-20 16:34:00,61.5,20.1,29.94,SW,227,0.0,2.0,20,0.00,,CLR,0.00,324.00,VWS V14.00,2013-03-20 20:34:00,
2013-03-20 16:39:00,61.5,20.1,29.94,WSW,243,5.0,8.0,20,0.00,,CLR,0.00,259.00,VWS V14.00,2013-03-20 20:39:00,
2013-03-20 16:44:00,61.3,19.9,29.94,West,261,0.0,11.0,20,0.00,,CLR,0.00,392.00,VWS V14.00,2013-03-20 20:44:00,
2013-03-20 16:49:00,61.5,20.1,29.94,WSW,248,4.0,11.0,20,0.00,,CLR,0.00,334.00,VWS V14.00,2013-03-20 20:49:00,
2013-03-20 16:54:00,61.3,21.1,29.94,SW,216,0.0,10.0,21,0.00,,CLR,0.00,269.00,VWS V14.00,2013-03-20 20:54:00,
2013-03-20 16:59:00,61.3,21.1,29.94,SSW,199,2.0,10.0,21,0.00,,CLR,0.00,282.00,VWS V14.00,2013-03-20 20:59:00,
2013-03-20 17:04:00,61.5,21.2,29.94,WSW,240,0.0,6.0,21,0.00,,CLR,0.00,278.00,VWS V14.00,2013-03-20 21:04:00,
2013-03-20 17:09:00,61.5,22.3,29.94,WSW,237,0.0,6.0,22,0.00,,CLR,0.00,257.00,VWS V14.00,2013-03-20 21:09:00,
2013-03-20 17:14:00,61.3,21.1,29.93,SSW,202,1.0,12.0,21,0.00,,CLR,0.00,299.00,VWS V14.00,2013-03-20 21:14:00,
2013-03-20 17:19:00,61.3,21.1,29.93,WSW,241,4.0,12.0,21,0.00,,CLR,0.00,230.00,VWS V14.00,2013-03-20 21:19:00,
2013-03-20 17:24:00,61.0,21.9,29.93,West,261,7.0,7.0,22,0.00,,CLR,0.00,239.00,VWS V14.00,2013-03-20 21:24:00,
2013-03-20 17:29:00,60.5,20.4,29.93,WSW,251,10.0,10.0,21,0.00,,CLR,0.00,206.00,VWS V14.00,2013-03-20 21:29:00,
2013-03-20 17:34:00,60.1,20.1,29.93,WSW,253,6.0,10.0,21,0.00,,CLR,0.00,181.00,VWS V14.00,2013-03-20 21:34:00,
2013-03-20 17:39:00,59.9,21.0,29.93,WSW,239,2.0,10.0,22,0.00,,CLR,0.00,257.00,VWS V14.00,2013-03-20 21:39:00,
2013-03-20 17:44:00,59.9,21.0,29.93,WSW,253,3.0,5.0,22,0.00,,CLR,0.00,204.00,VWS V14.00,2013-03-20 21:44:00,
2013-03-20 17:49:00,59.9,22.0,29.93,SW,234,1.0,5.0,23,0.00,,CLR,0.00,197.00,VWS V14.00,2013-03-20 21:49:00,
2013-03-20 17:54:00,59.9,19.9,29.93,SSW,213,1.0,7.0,21,0.00,,CLR,0.00,162.00,VWS V14.00,2013-03-20 21:54:00,
2013-03-20 17:59:00,59.9,21.0,29.93,SW,234,2.0,7.0,22,0.00,,CLR,0.00,150.00,VWS V14.00,2013-03-20 21:59:00,
2013-03-20 18:04:00,59.9,21.0,29.93,WSW,243,5.0,11.0,22,0.00,,CLR,0.00,141.00,VWS V14.00,2013-03-20 22:04:00,
2013-03-20 18:09:00,59.9,22.0,29.93,SSW,205,2.0,11.0,23,0.00,,CLR,0.00,113.00,VWS V14.00,2013-03-20 22:09:00,
2013-03-20 18:14:00,59.9,22.0,29.92,SSW,212,2.0,3.0,23,0.00,,CLR,0.00,109.00,VWS V14.00,2013-03-20 22:14:00,
2013-03-20 18:19:00,59.8,22.0,29.92,SW,216,4.0,5.0,23,0.00,,CLR,0.00,113.00,VWS V14.00,2013-03-20 22:19:00,
2013-03-20 18:24:00,59.8,22.0,29.92,WSW,248,2.0,6.0,23,0.00,,CLR,0.00,109.00,VWS V14.00,2013-03-20 22:24:00,
2013-03-20 18:29:00,59.6,21.8,29.91,WSW,244,3.0,6.0,23,0.00,,CLR,0.00,97.00,VWS V14.00,2013-03-20 22:29:00,
2013-03-20 18:34:00,59.6,22.8,29.91,SW,236,1.0,3.0,24,0.00,,CLR,0.00,86.00,VWS V14.00,2013-03-20 22:34:00,
2013-03-20 18:39:00,59.5,22.7,29.91,WSW,247,1.0,3.0,24,0.00,,CLR,0.00,90.00,VWS V14.00,2013-03-20 22:39:00,
2013-03-20 18:44:00,59.3,22.5,29.91,SW,233,2.0,5.0,24,0.00,,CLR,0.00,69.00,VWS V14.00,2013-03-20 22:44:00,
2013-03-20 18:49:00,59.3,22.5,29.91,SW,229,3.0,5.0,24,0.00,,CLR,0.00,44.00,VWS V14.00,2013-03-20 22:49:00,
2013-03-20 18:54:00,59.2,22.5,29.91,WSW,251,1.0,6.0,24,0.00,,CLR,0.00,44.00,VWS V14.00,2013-03-20 22:54:00,
2013-03-20 18:59:00,59.0,23.2,29.91,WSW,248,0.0,11.0,25,0.00,,CLR,0.00,46.00,VWS V14.00,2013-03-20 22:59:00,
2013-03-20 19:04:00,58.9,23.2,29.91,WSW,240,2.0,6.0,25,0.00,,CLR,0.00,42.00,VWS V14.00,2013-03-20 23:04:00,
2013-03-20 19:09:00,58.7,23.0,29.91,SW,236,5.0,6.0,25,0.00,,CLR,0.00,39.00,VWS V14.00,2013-03-20 23:09:00,
2013-03-20 19:14:00,58.6,23.8,29.90,SW,232,0.0,3.0,26,0.00,,CLR,0.00,37.00,VWS V14.00,2013-03-20 23:14:00,
2013-03-20 19:19:00,58.3,24.5,29.90,SSW,203,2.0,4.0,27,0.00,,CLR,0.00,26.00,VWS V14.00,2013-03-20 23:19:00,
2013-03-20 19:25:00,58.1,25.2,29.90,WSW,239,0.0,3.0,28,0.00,,CLR,0.00,19.00,VWS V14.00,2013-03-20 23:25:00,
2013-03-20 19:30:00,57.8,24.9,29.90,WSW,240,1.0,3.0,28,0.00,,CLR,0.00,16.00,VWS V14.00,2013-03-20 23:30:00,
2013-03-20 19:35:00,57.5,23.8,29.90,WSW,240,1.0,1.0,27,0.00,,CLR,0.00,9.00,VWS V14.00,2013-03-20 23:35:00,
2013-03-20 19:40:00,57.3,23.6,29.90,WSW,240,0.0,1.0,27,0.00,,CLR,0.00,9.00,VWS V14.00,2013-03-20 23:40:00,
2013-03-20 19:45:00,57.0,23.4,29.90,WNW,284,0.0,1.0,27,0.00,,CLR,0.00,7.00,VWS V14.00,2013-03-20 23:45:00,
2013-03-20 19:50:00,56.7,24.0,29.90,SSE,158,0.0,2.0,28,0.00,,CLR,0.00,0.00,VWS V14.00,2013-03-20 23:50:00,
2013-03-20 19:55:00,56.5,23.8,29.90,SSE,155,0.0,2.0,28,0.00,,CLR,0.00,0.00,VWS V14.00,2013-03-20 23:55:00,
2013-03-20 20:00:00,56.2,23.5,29.90,North,0,0.0,7.0,28,0.00,,CLR,0.00,0.00,VWS V14.00,2013-03-21 00:00:00,
2013-03-20 20:05:00,56.0,23.4,29.90,North,0,0.0,1.0,28,0.00,,CLR,0.00,0.00,VWS V14.00,2013-03-21 00:05:00,
2013-03-20 20:10:00,55.7,23.1,29.90,North,0,0.0,1.0,28,0.00,,CLR,0.00,0.00,VWS V14.00,2013-03-21 00:10:00,
2013-03-20 20:15:00,55.6,23.9,29.90,North,0,0.0,1.0,29,0.00,,CLR,0.00,0.00,VWS V14.00,2013-03-21 00:15:00,
2013-03-20 20:20:00,55.3,24.4,29.90,NNE,27,0.0,1.0,30,0.00,,CLR,0.00,0.00,VWS V14.00,2013-03-21 00:20:00,
2013-03-20 20:25:00,55.0,23.4,29.90,NNE,27,0.0,0.0,29,0.00,,CLR,0.00,0.00,VWS V14.00,2013-03-21 00:25:00,
2013-03-20 20:30:00,54.8,25.5,29.90,NNE,27,0.0,0.0,32,0.00,,CLR,0.00,0.00,VWS V14.00,2013-03-21 00:30:00,
2013-03-20 20:35:00,54.4,24.4,29.90,NNE,27,0.0,0.0,31,0.00,,CLR,0.00,0.00,VWS V14.00,2013-03-21 00:35:00,
2013-03-20 20:40:00,54.1,24.2,29.90,NNE,27,0.0,0.0,31,0.00,,CLR,0.00,0.00,VWS V14.00,2013-03-21 00:40:00,
2013-03-20 20:45:00,53.6,24.5,29.90,East,80,0.0,2.0,32,0.00,,CLR,0.00,0.00,VWS V14.00,2013-03-21 00:45:00,
2013-03-20 20:50:00,53.5,25.1,29.90,East,80,0.0,2.0,33,0.00,,CLR,0.00,0.00,VWS V14.00,2013-03-21 00:50:00,
2013-03-20 20:55:00,53.1,24.8,29.90,East,82,0.0,0.0,33,0.00,,CLR,0.00,0.00,VWS V14.00,2013-03-21 00:55:00,
2013-03-20 21:00:00,52.8,25.2,29.90,East,82,0.0,0.0,34,0.00,,CLR,0.00,0.00,VWS V14.00,2013-03-21 01:00:00,
2013-03-20 21:05:00,52.5,25.7,29.90,East,82,0.0,0.0,35,0.00,,CLR,0.00,0.00,VWS V14.00,2013-03-21 01:05:00,
2013-03-20 21:10:00,52.2,26.1,29.90,East,82,0.0,0.0,36,0.00,,CLR,0.00,0.00,VWS V14.00,2013-03-21 01:10:00,
2013-03-20 21:15:00,52.0,25.9,29.90,East,82,0.0,0.0,36,0.00,,CLR,0.00,0.00,VWS V14.00,2013-03-21 01:15:00,
2013-03-20 21:20:00,51.6,25.5,29.90,East,82,0.0,0.0,36,0.00,,CLR,0.00,0.00,VWS V14.00,2013-03-21 01:20:00,
2013-03-20 21:25:00,51.3,27.2,29.90,East,82,0.0,0.0,39,0.00,,CLR,0.00,0.00,VWS V14.00,2013-03-21 01:25:00,
2013-03-20 21:30:00,50.8,26.8,29.90,East,82,0.0,0.0,39,0.00,,CLR,0.00,0.00,VWS V14.00,2013-03-21 01:30:00,
2013-03-20 21:35:00,50.5,27.1,29.90,East,82,0.0,0.0,40,0.00,,CLR,0.00,0.00,VWS V14.00,2013-03-21 01:35:00,
2013-03-20 21:40:00,50.4,25.8,29.90,East,96,0.0,1.0,38,0.00,,CLR,0.00,0.00,VWS V14.00,2013-03-21 01:40:00,
2013-03-20 21:45:00,50.1,26.7,29.90,East,96,0.0,1.0,40,0.00,,CLR,0.00,0.00,VWS V14.00,2013-03-21 01:45:00,
2013-03-20 21:50:00,49.9,26.0,29.90,East,96,0.0,1.0,39,0.00,,CLR,0.00,0.00,VWS V14.00,2013-03-21 01:50:00,
2013-03-20 21:55:00,49.8,25.9,29.90,East,96,0.0,0.0,39,0.00,,CLR,0.00,0.00,VWS V14.00,2013-03-21 01:55:00,
2013-03-20 22:00:00,49.6,25.7,29.90,SW,223,0.0,2.0,39,0.00,,CLR,0.00,0.00,VWS V14.00,2013-03-21 02:00:00,
2013-03-20 22:05:00,49.6,25.7,29.90,SW,223,0.0,0.0,39,0.00,,CLR,0.00,0.00,VWS V14.00,2013-03-21 02:05:00,
2013-03-20 22:10:00,49.5,25.6,29.90,SW,223,0.0,0.0,39,0.00,,CLR,0.00,0.00,VWS V14.00,2013-03-21 02:10:00,
2013-03-20 22:15:00,49.4,25.5,29.90,SW,223,0.0,0.0,39,0.00,,CLR,0.00,0.00,VWS V14.00,2013-03-21 02:15:00,
2013-03-20 22:20:00,49.2,24.7,29.90,SW,223,0.0,0.0,38,0.00,,CLR,0.00,0.00,VWS V14.00,2013-03-21 02:20:00,
2013-03-20 22:25:00,49.2,25.3,29.90,SW,223,0.0,0.0,39,0.00,,CLR,0.00,0.00,VWS V14.00,2013-03-21 02:25:00,
2013-03-20 22:30:00,49.1,25.2,29.90,SW,223,0.0,0.0,39,0.00,,CLR,0.00,0.00,VWS V14.00,2013-03-21 02:30:00,
2013-03-20 22:35:00,48.9,24.4,29.90,SW,223,0.0,0.0,38,0.00,,CLR,0.00,0.00,VWS V14.00,2013-03-21 02:35:00,
2013-03-20 22:40:00,48.8,24.3,29.90,SW,223,0.0,0.0,38,0.00,,CLR,0.00,0.00,VWS V14.00,2013-03-21 02:40:00,
2013-03-20 22:45:00,48.5,24.1,29.90,SW,223,0.0,0.0,38,0.00,,CLR,0.00,0.00,VWS V14.00,2013-03-21 02:45:00,
2013-03-20 22:50:00,48.3,25.1,29.90,SW,223,0.0,1.0,40,0.00,,CLR,0.00,0.00,VWS V14.00,2013-03-21 02:50:00,
2013-03-20 22:55:00,48.2,23.8,29.90,WSW,239,1.0,2.0,38,0.00,,CLR,0.00,0.00,VWS V14.00,2013-03-21 02:55:00,
2013-03-20 23:00:00,48.0,24.2,29.90,WSW,239,0.0,2.0,39,0.00,,CLR,0.00,0.00,VWS V14.00,2013-03-21 03:00:00,
2013-03-20 23:05:00,47.9,24.1,29.90,WSW,239,0.0,0.0,39,0.00,,CLR,0.00,0.00,VWS V14.00,2013-03-21 03:05:00,
2013-03-20 23:10:00,47.9,24.1,29.90,WSW,239,0.0,0.0,39,0.00,,CLR,0.00,0.00,VWS V14.00,2013-03-21 03:10:00,
2013-03-20 23:15:00,47.7,23.4,29.90,WSW,237,0.0,1.0,38,0.00,,CLR,0.00,0.00,VWS V14.00,2013-03-21 03:15:00,
2013-03-20 23:20:00,47.6,23.9,29.90,WSW,237,0.0,1.0,39,0.00,,CLR,0.00,0.00,VWS V14.00,2013-03-21 03:20:00,
2013-03-20 23:25:00,47.6,23.3,29.90,SW,230,0.0,2.0,38,0.00,,CLR,0.00,0.00,VWS V14.00,2013-03-21 03:25:00,
2013-03-20 23:30:00,47.4,23.7,29.90,SW,230,0.0,2.0,39,0.00,,CLR,0.00,0.00,VWS V14.00,2013-03-21 03:30:00,
2013-03-20 23:35:00,47.4,24.3,29.90,SW,230,0.0,1.0,40,0.00,,CLR,0.00,0.00,VWS V14.00,2013-03-21 03:35:00,
2013-03-20 23:40:00,47.3,24.2,29.90,SW,230,0.0,1.0,40,0.00,,CLR,0.00,0.00,VWS V14.00,2013-03-21 03:40:00,
2013-03-20 23:45:00,47.3,24.2,29.89,SW,229,0.0,2.0,40,0.00,,CLR,0.00,0.00,VWS V14.00,2013-03-21 03:45:00,
2013-03-20 23:50:00,47.3,24.2,29.89,SW,229,0.0,2.0,40,0.00,,CLR,0.00,0.00,VWS V14.00,2013-03-21 03:50:00,
2013-03-20 23:55:00,47.3,23.0,29.89,WSW,247,6.0,8.0,38,0.00,,CLR,0.00,0.00,VWS V14.00,2013-03-21 03:55:00,